createdAt,value
2019-04-30T00:01:28.183Z,8.30
2019-04-30T00:04:18.778Z,8.30
2019-04-30T00:06:50.284Z,8.30
2019-04-30T00:09:25.121Z,8.40
2019-04-30T00:12:01.002Z,8.40
2019-04-30T00:14:37.275Z,8.50
2019-04-30T00:17:02.494Z,8.50
2019-04-30T00:19:35.825Z,8.50
2019-04-30T00:22:06.964Z,8.50
2019-04-30T00:24:39.966Z,8.50
2019-04-30T00:27:11.004Z,8.50
2019-04-30T00:29:41.873Z,8.50
2019-04-30T00:32:13.013Z,8.50
2019-04-30T00:34:45.537Z,8.40
2019-04-30T00:37:18.875Z,8.40
2019-04-30T00:39:51.000Z,8.40
2019-04-30T00:42:24.466Z,8.40
2019-04-30T00:44:55.294Z,8.40
2019-04-30T00:47:27.309Z,8.20
2019-04-30T00:50:00.327Z,8.20
2019-04-30T00:52:33.857Z,8.20
2019-04-30T00:55:05.542Z,8.20
2019-04-30T00:57:37.359Z,8.30
2019-04-30T01:00:09.979Z,8.40
2019-04-30T01:02:56.493Z,8.40
2019-04-30T01:05:27.383Z,8.40
2019-04-30T01:07:58.308Z,8.30
2019-04-30T01:10:29.293Z,8.20
2019-04-30T01:13:07.996Z,8.20
2019-04-30T01:15:33.179Z,8.10
2019-04-30T01:18:05.098Z,8.20
2019-04-30T01:20:36.438Z,8.20
2019-04-30T01:23:11.173Z,7.90
2019-04-30T01:25:43.172Z,7.90
2019-04-30T01:28:16.387Z,7.90
2019-04-30T01:30:46.463Z,8.00
2019-04-30T01:33:19.137Z,8.00
2019-04-30T01:35:50.078Z,8.10
2019-04-30T01:38:20.898Z,8.10
2019-04-30T01:40:52.433Z,8.10
2019-04-30T01:43:33.009Z,8.10
2019-04-30T01:45:56.198Z,8.10
2019-04-30T01:48:29.159Z,8.10
2019-04-30T01:51:01.118Z,8.10
2019-04-30T01:53:32.588Z,8.00
2019-04-30T01:56:22.156Z,8.00
2019-04-30T01:58:57.013Z,8.00
2019-04-30T02:01:31.108Z,7.90
2019-04-30T02:04:02.101Z,7.90
2019-04-30T02:06:33.269Z,7.90
2019-04-30T02:09:04.103Z,7.80
2019-04-30T02:11:35.593Z,7.90
2019-04-30T02:14:08.905Z,7.90
2019-04-30T02:16:39.964Z,8.00
2019-04-30T02:19:11.614Z,8.00
2019-04-30T02:21:42.469Z,8.00
2019-04-30T02:24:13.358Z,8.00
2019-04-30T02:26:44.428Z,8.00
2019-04-30T02:29:15.569Z,8.10
2019-04-30T02:31:46.428Z,8.10
2019-04-30T02:34:23.653Z,8.10
2019-04-30T02:37:11.544Z,8.10
2019-04-30T02:39:42.425Z,8.00
2019-04-30T02:42:14.310Z,7.90
2019-04-30T02:44:46.664Z,7.90
2019-04-30T02:47:20.379Z,7.90
2019-04-30T02:50:10.157Z,7.90
2019-04-30T02:52:29.523Z,8.00
2019-04-30T02:55:02.525Z,8.00
2019-04-30T02:57:33.799Z,8.20
2019-04-30T03:00:12.481Z,8.20
2019-04-30T03:02:43.593Z,8.20
2019-04-30T03:05:15.599Z,8.20
2019-04-30T03:07:46.939Z,8.20
2019-04-30T03:10:19.850Z,8.20
2019-04-30T03:12:50.438Z,8.20
2019-04-30T03:15:22.857Z,8.10
2019-04-30T03:18:00.714Z,8.10
2019-04-30T03:21:02.575Z,8.10
2019-04-30T03:23:33.661Z,8.10
2019-04-30T03:26:04.860Z,8.10
2019-04-30T03:28:35.828Z,8.00
2019-04-30T03:31:07.107Z,8.00
2019-04-30T03:33:42.360Z,8.00
2019-04-30T03:36:12.927Z,8.00
2019-04-30T03:38:44.349Z,8.00
2019-04-30T03:41:15.764Z,8.00
2019-04-30T03:43:50.145Z,8.00
2019-04-30T03:46:19.775Z,7.90
2019-04-30T03:48:50.645Z,7.90
2019-04-30T03:51:21.534Z,7.80
2019-04-30T03:53:53.150Z,7.80
2019-04-30T03:56:24.884Z,7.80
2019-04-30T03:58:56.348Z,7.90
2019-04-30T04:01:49.764Z,8.00
2019-04-30T04:04:30.930Z,8.10
2019-04-30T04:07:23.789Z,8.00
2019-04-30T04:10:06.335Z,8.00
2019-04-30T04:12:39.390Z,8.10
2019-04-30T04:15:10.676Z,8.10
2019-04-30T04:17:41.754Z,8.00
2019-04-30T04:20:12.604Z,8.00
2019-04-30T04:22:43.534Z,8.00
2019-04-30T04:25:14.980Z,7.90
2019-04-30T04:27:46.269Z,7.70
2019-04-30T04:30:20.127Z,7.50
2019-04-30T04:32:50.638Z,7.50
2019-04-30T04:35:21.769Z,7.50
2019-04-30T04:37:52.596Z,7.60
2019-04-30T04:40:23.989Z,7.60
2019-04-30T04:42:55.295Z,7.50
2019-04-30T04:45:26.159Z,7.60
2019-04-30T04:47:59.752Z,7.80
2019-04-30T04:50:30.444Z,7.80
2019-04-30T04:53:01.692Z,7.80
2019-04-30T04:55:32.970Z,7.80
2019-04-30T04:58:03.923Z,7.70
2019-04-30T05:00:35.244Z,7.60
2019-04-30T05:03:26.700Z,7.70
2019-04-30T05:06:01.800Z,7.50
2019-04-30T05:08:30.450Z,7.50
2019-04-30T05:11:01.493Z,7.70
2019-04-30T05:13:34.776Z,7.80
2019-04-30T05:16:05.398Z,7.90
2019-04-30T05:18:36.464Z,7.90
2019-04-30T05:21:08.827Z,8.00
2019-04-30T05:23:42.625Z,8.20
2019-04-30T05:26:13.223Z,8.30
2019-04-30T05:28:44.319Z,8.40
2019-04-30T05:31:15.573Z,8.50
2019-04-30T05:33:46.788Z,8.50
2019-04-30T05:36:19.190Z,8.60
2019-04-30T05:38:50.289Z,8.70
2019-04-30T05:41:21.269Z,8.70
2019-04-30T05:43:52.801Z,8.70
2019-04-30T05:46:23.753Z,8.80
2019-04-30T05:48:55.288Z,8.80
2019-04-30T05:51:26.393Z,9.00
2019-04-30T05:53:59.191Z,9.00
2019-04-30T05:56:30.489Z,9.10
2019-04-30T05:59:02.934Z,9.30
2019-04-30T06:01:34.408Z,9.40
2019-04-30T06:04:05.339Z,9.50
2019-04-30T06:06:38.512Z,9.50
2019-04-30T06:09:28.597Z,9.60
2019-04-30T06:12:02.103Z,9.80
2019-04-30T06:14:48.895Z,9.90
2019-04-30T06:17:19.575Z,10.00
2019-04-30T06:19:51.503Z,10.00
2019-04-30T06:22:22.908Z,10.10
2019-04-30T06:24:53.773Z,10.20
2019-04-30T06:27:25.198Z,10.30
2019-04-30T06:29:56.203Z,10.40
2019-04-30T06:32:27.234Z,10.50
2019-04-30T06:34:59.301Z,10.70
2019-04-30T06:37:31.637Z,10.60
2019-04-30T06:40:03.248Z,10.80
2019-04-30T06:42:34.170Z,10.80
2019-04-30T06:45:06.088Z,11.00
2019-04-30T06:47:38.934Z,11.10
2019-04-30T06:50:10.173Z,11.20
2019-04-30T06:52:41.308Z,11.30
2019-04-30T06:55:12.829Z,11.30
2019-04-30T06:57:43.944Z,11.50
2019-04-30T07:00:15.308Z,11.60
2019-04-30T07:02:46.813Z,11.60
2019-04-30T07:05:18.594Z,11.60
2019-04-30T07:08:09.856Z,11.80
2019-04-30T07:10:41.430Z,12.00
2019-04-30T07:13:32.753Z,12.00
2019-04-30T07:16:03.824Z,12.10
2019-04-30T07:18:35.009Z,12.20
2019-04-30T07:21:05.898Z,12.40
2019-04-30T07:23:38.606Z,12.50
2019-04-30T07:26:09.280Z,12.70
2019-04-30T07:28:47.904Z,12.70
2019-04-30T07:31:14.936Z,12.90
2019-04-30T07:33:50.751Z,13.00
2019-04-30T07:36:19.533Z,13.00
2019-04-30T07:38:56.234Z,12.90
2019-04-30T07:41:23.403Z,13.00
2019-04-30T07:43:54.280Z,13.00
2019-04-30T07:46:25.198Z,13.30
2019-04-30T07:48:56.628Z,13.40
2019-04-30T07:51:31.135Z,13.50
2019-04-30T07:54:00.833Z,13.60
2019-04-30T07:56:37.554Z,13.70
2019-04-30T07:59:05.219Z,13.70
2019-04-30T08:01:36.415Z,13.70
2019-04-30T08:04:24.218Z,13.80
2019-04-30T08:06:56.054Z,14.00
2019-04-30T08:09:36.651Z,14.00
2019-04-30T08:12:00.454Z,14.10
2019-04-30T08:14:31.753Z,14.10
2019-04-30T08:17:02.549Z,14.30
2019-04-30T08:19:33.838Z,14.40
2019-04-30T08:22:04.678Z,14.50
2019-04-30T08:24:35.778Z,14.70
2019-04-30T08:27:07.084Z,14.90
2019-04-30T08:29:39.500Z,15.00
2019-04-30T08:32:10.999Z,15.10
2019-04-30T08:34:42.608Z,15.20
2019-04-30T08:37:17.605Z,15.20
2019-04-30T08:39:46.544Z,15.30
2019-04-30T08:42:29.061Z,15.50
2019-04-30T08:44:50.203Z,15.30
2019-04-30T08:47:21.263Z,15.40
2019-04-30T08:49:52.933Z,15.40
2019-04-30T08:52:24.388Z,15.50
2019-04-30T08:54:55.243Z,15.60
2019-04-30T08:57:25.946Z,15.80
2019-04-30T08:59:58.592Z,15.90
2019-04-30T09:02:29.695Z,16.00
2019-04-30T09:05:04.798Z,15.90
2019-04-30T09:07:35.953Z,16.00
2019-04-30T09:10:09.180Z,16.00
2019-04-30T09:12:40.846Z,16.30
2019-04-30T09:15:12.134Z,16.40
2019-04-30T09:17:43.234Z,16.40
2019-04-30T09:20:14.879Z,16.40
2019-04-30T09:22:46.229Z,16.70
2019-04-30T09:25:16.924Z,16.80
2019-04-30T09:27:48.798Z,16.80
2019-04-30T09:30:19.733Z,17.00
2019-04-30T09:32:50.538Z,17.20
2019-04-30T09:35:21.918Z,17.40
2019-04-30T09:37:58.907Z,17.30
2019-04-30T09:40:25.989Z,17.30
2019-04-30T09:42:58.549Z,17.50
2019-04-30T09:45:29.580Z,17.30
2019-04-30T09:48:00.965Z,17.80
2019-04-30T09:50:31.896Z,17.70
2019-04-30T09:53:03.434Z,17.90
2019-04-30T09:55:34.713Z,17.90
2019-04-30T09:58:16.191Z,18.00
2019-04-30T10:00:39.279Z,18.00
2019-04-30T10:03:11.031Z,18.10
2019-04-30T10:05:42.619Z,17.90
2019-04-30T10:08:13.558Z,17.80
2019-04-30T10:10:51.424Z,18.20
2019-04-30T10:13:22.283Z,18.30
2019-04-30T10:16:15.046Z,18.10
2019-04-30T10:18:46.088Z,18.00
2019-04-30T10:21:18.968Z,18.10
2019-04-30T10:23:50.228Z,18.40
2019-04-30T10:26:21.828Z,18.40
2019-04-30T10:28:54.147Z,18.60
2019-04-30T10:31:24.983Z,18.70
2019-04-30T10:33:55.729Z,19.00
2019-04-30T10:36:27.058Z,19.10
2019-04-30T10:38:59.517Z,19.30
2019-04-30T10:41:31.094Z,19.70
2019-04-30T10:44:02.366Z,19.90
2019-04-30T10:46:33.228Z,19.80
2019-04-30T10:49:04.409Z,19.50
2019-04-30T10:51:35.620Z,19.50
2019-04-30T10:54:08.837Z,19.50
2019-04-30T10:56:40.318Z,19.90
2019-04-30T10:59:11.328Z,19.70
2019-04-30T11:01:42.020Z,19.70
2019-04-30T11:04:14.754Z,19.60
2019-04-30T11:06:46.158Z,19.70
2019-04-30T11:09:17.433Z,19.80
2019-04-30T11:11:49.729Z,19.80
2019-04-30T11:14:21.069Z,19.70
2019-04-30T11:16:52.222Z,19.50
2019-04-30T11:19:23.739Z,19.60
2019-04-30T11:21:55.124Z,20.00
2019-04-30T11:24:35.961Z,20.20
2019-04-30T11:26:59.819Z,20.10
2019-04-30T11:29:31.591Z,20.10
2019-04-30T11:32:12.173Z,20.20
2019-04-30T11:34:43.334Z,20.10
2019-04-30T11:37:14.423Z,20.20
2019-04-30T11:39:45.204Z,20.40
2019-04-30T11:42:16.229Z,20.50
2019-04-30T11:44:48.790Z,20.60
2019-04-30T11:47:37.408Z,20.40
2019-04-30T11:50:11.008Z,20.30
2019-04-30T11:52:41.867Z,20.10
2019-04-30T11:55:13.769Z,20.00
2019-04-30T11:57:45.058Z,19.70
2019-04-30T12:00:21.559Z,19.70
2019-04-30T12:02:53.096Z,19.70
2019-04-30T12:05:23.945Z,19.70
2019-04-30T12:08:22.580Z,20.00
2019-04-30T12:11:21.614Z,20.60
2019-04-30T12:13:53.064Z,20.70
2019-04-30T12:16:24.523Z,20.70
2019-04-30T12:18:55.770Z,20.90
2019-04-30T12:21:26.843Z,21.00
2019-04-30T12:23:57.779Z,21.30
2019-04-30T12:26:28.958Z,21.20
2019-04-30T12:28:59.894Z,21.20
2019-04-30T12:31:30.749Z,21.10
2019-04-30T12:34:01.515Z,21.30
2019-04-30T12:36:32.379Z,21.10
2019-04-30T12:39:03.253Z,21.30
2019-04-30T12:41:34.194Z,21.40
2019-04-30T12:44:05.383Z,21.40
2019-04-30T12:46:36.395Z,21.20
2019-04-30T12:49:12.449Z,21.60
2019-04-30T12:52:00.984Z,21.50
2019-04-30T12:54:42.921Z,22.00
2019-04-30T12:57:39.298Z,22.10
2019-04-30T13:00:12.308Z,21.90
2019-04-30T13:02:42.948Z,22.20
2019-04-30T13:05:13.736Z,22.60
2019-04-30T13:07:44.784Z,22.60
2019-04-30T13:10:16.489Z,22.70
2019-04-30T13:12:48.097Z,23.00
2019-04-30T13:15:19.527Z,23.20
2019-04-30T13:17:50.363Z,23.10
2019-04-30T13:20:23.994Z,23.30
2019-04-30T13:22:53.523Z,23.30
2019-04-30T13:25:32.493Z,24.30
2019-04-30T13:28:01.228Z,25.60
2019-04-30T13:30:32.853Z,26.10
2019-04-30T13:33:15.213Z,25.90
2019-04-30T13:35:45.923Z,27.10
2019-04-30T13:38:47.513Z,27.40
2019-04-30T13:41:29.739Z,27.40
2019-04-30T13:44:03.173Z,27.00
2019-04-30T13:46:34.078Z,27.10
2019-04-30T13:49:04.893Z,27.90
2019-04-30T13:51:35.798Z,28.70
2019-04-30T13:54:06.643Z,27.80
2019-04-30T13:56:39.539Z,28.80
2019-04-30T13:59:10.278Z,28.50
2019-04-30T14:01:41.036Z,28.80
2019-04-30T14:04:36.382Z,29.00
2019-04-30T14:07:25.738Z,29.80
2019-04-30T14:09:57.035Z,29.70
2019-04-30T14:12:27.703Z,28.90
2019-04-30T14:14:59.217Z,29.30
2019-04-30T14:17:30.214Z,30.00
2019-04-30T14:20:01.050Z,29.90
2019-04-30T14:22:31.879Z,30.10
2019-04-30T14:25:02.770Z,29.50
2019-04-30T14:27:34.158Z,28.80
2019-04-30T14:30:06.085Z,27.90
2019-04-30T14:32:36.874Z,26.90
2019-04-30T14:35:09.113Z,28.70
2019-04-30T14:37:40.175Z,28.90
2019-04-30T14:40:13.048Z,30.20
2019-04-30T14:42:50.276Z,30.30
2019-04-30T14:45:30.418Z,30.30
2019-04-30T14:48:10.652Z,29.80
2019-04-30T14:50:42.109Z,30.30
2019-04-30T14:53:23.508Z,30.00
2019-04-30T14:56:19.739Z,29.10
2019-04-30T14:59:09.863Z,30.30
2019-04-30T15:01:51.692Z,30.50
2019-04-30T15:04:22.798Z,30.20
2019-04-30T15:06:53.583Z,29.70
2019-04-30T15:09:24.603Z,30.00
2019-04-30T15:11:55.749Z,29.60
2019-04-30T15:14:26.623Z,28.60
2019-04-30T15:16:57.508Z,28.10
2019-04-30T15:19:28.559Z,28.60
2019-04-30T15:22:01.532Z,28.40
2019-04-30T15:24:35.213Z,28.00
2019-04-30T15:27:06.618Z,27.60
2019-04-30T15:29:39.005Z,27.70
2019-04-30T15:32:10.150Z,27.40
2019-04-30T15:34:42.485Z,27.30
2019-04-30T15:37:21.720Z,27.60
2019-04-30T15:39:46.793Z,27.90
2019-04-30T15:42:18.729Z,27.60
2019-04-30T15:44:49.784Z,28.40
2019-04-30T15:47:21.740Z,29.20
2019-04-30T15:49:52.743Z,29.50
2019-04-30T15:52:23.579Z,28.80
2019-04-30T15:54:54.349Z,29.40
2019-04-30T15:57:25.085Z,29.30
2019-04-30T15:59:55.907Z,28.10
2019-04-30T16:02:54.758Z,27.20
2019-04-30T16:05:32.398Z,27.30
2019-04-30T16:08:29.067Z,27.70
2019-04-30T16:11:19.339Z,27.10
2019-04-30T16:14:20.463Z,26.90
2019-04-30T16:17:08.834Z,27.00
2019-04-30T16:19:39.779Z,27.40
2019-04-30T16:22:10.563Z,27.90
2019-04-30T16:24:41.449Z,27.60
2019-04-30T16:27:12.233Z,27.20
2019-04-30T16:29:43.178Z,26.90
2019-04-30T16:32:14.058Z,27.10
2019-04-30T16:34:44.918Z,27.20
2019-04-30T16:37:15.959Z,26.70
2019-04-30T16:39:46.784Z,27.10
2019-04-30T16:42:19.021Z,26.90
2019-04-30T16:44:50.304Z,26.80
2019-04-30T16:47:21.197Z,27.00
2019-04-30T16:49:52.120Z,27.20
2019-04-30T16:52:22.930Z,26.90
2019-04-30T16:54:53.498Z,26.50
2019-04-30T16:57:24.284Z,26.20
2019-04-30T16:59:55.064Z,26.80
2019-04-30T17:02:29.313Z,27.00
2019-04-30T17:05:11.224Z,26.60
2019-04-30T17:07:53.675Z,27.10
2019-04-30T17:10:43.111Z,26.70
2019-04-30T17:13:23.019Z,26.50
2019-04-30T17:15:57.138Z,26.40
2019-04-30T17:18:29.725Z,25.30
2019-04-30T17:21:01.560Z,24.90
2019-04-30T17:23:32.734Z,24.40
2019-04-30T17:26:03.614Z,24.60
2019-04-30T17:28:34.964Z,24.80
2019-04-30T17:31:06.608Z,24.90
2019-04-30T17:33:38.309Z,24.70
2019-04-30T17:36:11.071Z,24.90
2019-04-30T17:38:42.719Z,24.90
2019-04-30T17:41:13.964Z,25.00
2019-04-30T17:43:45.394Z,24.90
2019-04-30T17:46:16.330Z,24.70
2019-04-30T17:48:49.415Z,24.40
2019-04-30T17:51:22.600Z,24.20
2019-04-30T17:54:09.770Z,24.00
2019-04-30T17:56:40.794Z,23.70
2019-04-30T17:59:11.780Z,23.60
2019-04-30T18:01:45.719Z,23.40
2019-04-30T18:04:18.607Z,23.20
2019-04-30T18:06:50.617Z,23.00
2019-04-30T18:09:22.137Z,23.10
2019-04-30T18:11:53.455Z,22.70
2019-04-30T18:14:24.420Z,22.30
2019-04-30T18:16:55.439Z,22.10
2019-04-30T18:19:49.655Z,21.60
2019-04-30T18:22:40.170Z,21.00
2019-04-30T18:25:35.889Z,20.50
2019-04-30T18:28:09.025Z,20.10
2019-04-30T18:30:40.805Z,19.80
2019-04-30T18:33:11.757Z,19.50
2019-04-30T18:35:42.789Z,19.40
2019-04-30T18:38:13.748Z,19.20
2019-04-30T18:40:45.084Z,19.10
2019-04-30T18:43:16.154Z,19.00
2019-04-30T18:45:49.334Z,18.80
2019-04-30T18:48:20.198Z,18.60
2019-04-30T18:50:51.538Z,18.50
2019-04-30T18:53:25.479Z,18.30
2019-04-30T18:55:59.061Z,18.10
2019-04-30T18:58:39.234Z,18.00
2019-04-30T19:01:02.970Z,17.90
2019-04-30T19:03:33.874Z,17.90
2019-04-30T19:06:22.446Z,17.90
2019-04-30T19:08:50.626Z,17.90
2019-04-30T19:11:32.529Z,17.70
2019-04-30T19:14:39.849Z,17.70
2019-04-30T19:17:32.453Z,17.60
2019-04-30T19:20:13.989Z,17.40
2019-04-30T19:22:44.769Z,17.30
2019-04-30T19:25:16.129Z,17.20
2019-04-30T19:27:46.968Z,17.20
2019-04-30T19:30:19.266Z,17.10
2019-04-30T19:32:50.859Z,16.90
2019-04-30T19:35:21.914Z,16.80
2019-04-30T19:37:53.005Z,16.80
2019-04-30T19:40:24.179Z,16.70
2019-04-30T19:42:55.934Z,16.60
2019-04-30T19:45:27.243Z,16.50
2019-04-30T19:47:58.720Z,16.50
2019-04-30T19:50:30.633Z,16.40
2019-04-30T19:53:02.054Z,16.30
2019-04-30T19:55:34.072Z,16.10
2019-04-30T19:58:05.923Z,16.00
2019-04-30T20:00:38.941Z,16.00
2019-04-30T20:03:10.474Z,15.90
2019-04-30T20:05:42.173Z,15.90
2019-04-30T20:08:13.639Z,15.80
2019-04-30T20:10:45.408Z,15.70
2019-04-30T20:13:30.602Z,15.60
2019-04-30T20:15:51.984Z,15.60
2019-04-30T20:18:22.949Z,15.50
2019-04-30T20:20:56.409Z,15.40
2019-04-30T20:23:27.849Z,15.40
2019-04-30T20:25:59.384Z,15.40
2019-04-30T20:28:39.129Z,15.30
2019-04-30T20:31:04.390Z,15.30
2019-04-30T20:33:35.725Z,15.20
2019-04-30T20:36:09.025Z,15.20
2019-04-30T20:38:56.979Z,15.10
2019-04-30T20:41:28.785Z,15.00
2019-04-30T20:43:59.702Z,15.10
2019-04-30T20:46:35.040Z,15.10
2019-04-30T20:49:03.649Z,15.10
2019-04-30T20:51:34.978Z,15.10
2019-04-30T20:54:06.613Z,15.20
2019-04-30T20:56:38.994Z,15.20
2019-04-30T20:59:10.877Z,15.10
2019-04-30T21:01:41.839Z,14.90
2019-04-30T21:04:13.068Z,14.90
2019-04-30T21:06:44.494Z,14.90
2019-04-30T21:09:15.923Z,14.80
2019-04-30T21:11:48.869Z,14.80
2019-04-30T21:14:19.482Z,14.80
2019-04-30T21:16:50.893Z,14.70
2019-04-30T21:19:22.728Z,14.60
2019-04-30T21:21:53.578Z,14.60
2019-04-30T21:24:25.153Z,14.70
2019-04-30T21:26:56.234Z,14.70
2019-04-30T21:29:29.231Z,14.80
2019-04-30T21:32:21.143Z,14.80
2019-04-30T21:35:13.263Z,14.70
2019-04-30T21:37:44.340Z,14.60
2019-04-30T21:40:15.853Z,14.50
2019-04-30T21:42:47.409Z,14.40
2019-04-30T21:45:18.503Z,14.20
2019-04-30T21:47:56.073Z,13.90
2019-04-30T21:50:21.978Z,13.90
2019-04-30T21:52:53.354Z,14.20
2019-04-30T21:55:24.118Z,14.40
2019-04-30T21:57:54.983Z,14.50
2019-04-30T22:00:43.943Z,14.50
2019-04-30T22:03:15.385Z,14.40
2019-04-30T22:05:46.298Z,14.30
2019-04-30T22:08:18.804Z,14.20
2019-04-30T22:10:50.458Z,13.90
2019-04-30T22:13:21.291Z,13.80
2019-04-30T22:15:52.148Z,13.90
2019-04-30T22:18:23.873Z,13.70
2019-04-30T22:20:55.148Z,13.40
2019-04-30T22:23:26.484Z,13.20
2019-04-30T22:25:57.828Z,13.10
2019-04-30T22:28:28.713Z,13.20
2019-04-30T22:31:00.093Z,13.30
2019-04-30T22:33:30.854Z,13.30
2019-04-30T22:36:08.725Z,13.30
2019-04-30T22:38:59.868Z,13.30
2019-04-30T22:41:32.221Z,13.20
2019-04-30T22:44:03.763Z,13.30
2019-04-30T22:46:34.838Z,13.20
2019-04-30T22:49:06.083Z,13.10
2019-04-30T22:51:37.383Z,13.10
2019-04-30T22:54:08.558Z,13.10
2019-04-30T22:56:39.908Z,13.00
2019-04-30T22:59:10.939Z,12.90
2019-04-30T23:01:58.973Z,12.90
2019-04-30T23:04:41.994Z,12.80
2019-04-30T23:07:13.344Z,12.80
2019-04-30T23:09:44.943Z,12.70
2019-04-30T23:12:15.942Z,12.50
2019-04-30T23:14:46.703Z,12.40
2019-04-30T23:17:17.578Z,12.40
2019-04-30T23:19:49.639Z,12.50
2019-04-30T23:22:20.598Z,12.40
2019-04-30T23:24:51.528Z,12.10
2019-04-30T23:27:22.928Z,11.80
2019-04-30T23:30:03.205Z,11.80
2019-04-30T23:32:26.038Z,12.00
2019-04-30T23:34:57.073Z,12.00
2019-04-30T23:37:27.971Z,12.00
2019-04-30T23:40:19.003Z,12.00
2019-04-30T23:42:49.824Z,11.90
2019-04-30T23:45:20.743Z,11.70
2019-04-30T23:47:51.623Z,11.70
2019-04-30T23:50:22.411Z,11.60
2019-04-30T23:52:53.278Z,11.70
2019-04-30T23:55:24.189Z,11.70
2019-04-30T23:57:55.028Z,11.80
